Terminal Aerodrome Forecast
Issued by NWS Louisville, KY

Home | Current Version | Previous Version | Text Only | Print | Product List | Glossary On
Versions: 1 2 3 4 5 6 7 8 9 10 11 12 13 14 15 16 17 18 19 20 21 22
000
FTUS43 KLMK 201120
TAFSDF
TAF
KSDF 201120Z 2012/2118 21010KT P6SM BKN025 WS020/24040KT
     FM201400 22012KT P6SM SCT015 OVC025
     FM202300 18006KT P6SM OVC021
     FM211000 18006KT P6SM VCSH BKN015=

USA.gov is the U.S. government's official web portal to all federal, state and local government web resources and services.